createdAt,value
2017-10-30T00:00:57.527Z,98667.56
2017-10-30T00:03:32.059Z,98681.97
2017-10-30T00:06:06.498Z,98679.16
2017-10-30T00:08:41.035Z,98681.17
2017-10-30T00:11:15.506Z,98699.58
2017-10-30T00:13:50.123Z,98687.42
2017-10-30T00:16:24.532Z,98683.16
2017-10-30T00:18:59.010Z,98684.34
2017-10-30T00:21:33.527Z,98702.63
2017-10-30T00:24:08.031Z,98694.73
2017-10-30T00:26:42.500Z,98704.36
2017-10-30T00:29:17.051Z,98695.58
2017-10-30T00:31:51.479Z,98704.39
2017-10-30T00:34:26.480Z,98673.27
2017-10-30T00:37:01.041Z,98696.91
2017-10-30T00:39:35.676Z,98687.44
2017-10-30T00:42:10.103Z,98695.84
2017-10-30T00:44:44.714Z,98702.55
2017-10-30T00:47:19.102Z,98709.88
2017-10-30T00:49:53.722Z,98689.84
2017-10-30T00:52:27.995Z,98724.56
2017-10-30T00:55:03.073Z,98699.20
2017-10-30T00:57:42.643Z,98703.47
2017-10-30T01:00:17.111Z,98689.99
2017-10-30T01:02:51.027Z,98710.28
2017-10-30T01:05:25.551Z,98716.70
2017-10-30T01:08:00.121Z,98720.58
2017-10-30T01:10:34.600Z,98721.77
2017-10-30T01:13:09.198Z,98707.20
2017-10-30T01:15:43.702Z,98723.62
2017-10-30T01:18:18.123Z,98718.44
2017-10-30T01:20:52.596Z,98718.56
2017-10-30T01:23:27.122Z,98741.91
2017-10-30T01:26:01.587Z,98738.34
2017-10-30T01:28:36.295Z,98738.59
2017-10-30T01:31:10.878Z,98729.77
2017-10-30T01:33:45.399Z,98743.55
2017-10-30T01:36:19.814Z,98756.09
2017-10-30T01:38:54.231Z,98741.27
2017-10-30T01:41:28.765Z,98755.30
2017-10-30T01:44:03.196Z,98767.33
2017-10-30T01:46:37.683Z,98776.03
2017-10-30T01:49:12.406Z,98779.50
2017-10-30T01:51:46.887Z,98775.21
2017-10-30T01:54:21.415Z,98778.56
2017-10-30T01:56:55.619Z,98790.58
2017-10-30T01:59:29.790Z,98781.23
2017-10-30T02:02:04.203Z,98778.45
2017-10-30T02:04:38.868Z,98790.72
2017-10-30T02:07:13.303Z,98737.23
2017-10-30T02:09:47.827Z,98782.02
2017-10-30T02:12:22.223Z,98796.31
2017-10-30T02:14:56.690Z,98784.42
2017-10-30T02:17:31.114Z,98788.83
2017-10-30T02:20:14.331Z,98784.27
2017-10-30T02:22:48.519Z,98795.23
2017-10-30T02:25:23.282Z,98787.50
2017-10-30T02:27:57.456Z,98803.77
2017-10-30T02:30:31.922Z,98803.09
2017-10-30T02:33:06.406Z,98797.09
2017-10-30T02:35:40.936Z,98809.36
2017-10-30T02:38:15.373Z,98814.17
2017-10-30T02:40:49.697Z,98816.31
2017-10-30T02:43:23.903Z,98825.62
2017-10-30T02:45:58.426Z,98816.67
2017-10-30T02:48:32.639Z,98819.30
2017-10-30T02:51:06.853Z,98819.30
2017-10-30T02:53:40.894Z,98831.42
2017-10-30T02:56:16.070Z,98821.52
2017-10-30T02:58:50.514Z,98819.77
2017-10-30T03:01:24.915Z,98830.61
2017-10-30T03:03:59.162Z,98837.80
2017-10-30T03:06:33.264Z,98836.83
2017-10-30T03:09:07.524Z,98842.33
2017-10-30T03:11:41.567Z,98830.67
2017-10-30T03:14:16.075Z,98834.14
2017-10-30T03:16:50.626Z,98839.72
2017-10-30T03:19:24.823Z,98807.86
2017-10-30T03:21:59.299Z,98843.03
2017-10-30T03:24:33.350Z,98831.30
2017-10-30T03:27:07.467Z,98837.45
2017-10-30T03:29:42.072Z,98833.28
2017-10-30T03:32:16.128Z,98838.50
2017-10-30T03:34:50.558Z,98841.45
2017-10-30T03:37:25.206Z,98850.26
2017-10-30T03:39:59.791Z,98841.97
2017-10-30T03:42:34.233Z,98834.50
2017-10-30T03:45:14.605Z,98841.86
2017-10-30T03:47:49.980Z,98845.73
2017-10-30T03:50:24.526Z,98853.59
2017-10-30T03:52:59.170Z,98858.16
2017-10-30T03:55:33.650Z,98838.40
2017-10-30T03:58:08.189Z,98861.23
2017-10-30T04:00:42.645Z,98870.94
2017-10-30T04:03:16.811Z,98869.36
2017-10-30T04:05:51.321Z,98880.16
2017-10-30T04:08:26.040Z,98870.82
2017-10-30T04:11:00.581Z,98876.05
2017-10-30T04:13:35.085Z,98889.54
2017-10-30T04:16:09.494Z,98887.28
2017-10-30T04:18:44.104Z,98889.03
2017-10-30T04:21:18.931Z,98891.82
2017-10-30T04:23:53.507Z,98895.83
2017-10-30T04:26:27.967Z,98903.59
2017-10-30T04:29:02.522Z,98892.25
2017-10-30T04:31:36.907Z,98913.48
2017-10-30T04:34:11.330Z,98917.66
2017-10-30T04:36:45.757Z,98916.72
2017-10-30T04:39:20.532Z,98915.80
2017-10-30T04:41:55.151Z,98919.94
2017-10-30T04:44:29.641Z,98924.62
2017-10-30T04:47:04.105Z,98932.22
2017-10-30T04:49:38.646Z,98935.13
2017-10-30T04:52:13.171Z,98926.30
2017-10-30T04:54:47.931Z,98935.76
2017-10-30T04:57:22.439Z,98941.48
2017-10-30T04:59:57.050Z,98941.78
2017-10-30T05:02:31.452Z,98935.87
2017-10-30T05:05:09.951Z,98930.30
2017-10-30T05:07:44.482Z,98943.47
2017-10-30T05:10:19.008Z,98944.15
2017-10-30T05:12:53.454Z,98938.12
2017-10-30T05:15:27.874Z,98924.09
2017-10-30T05:18:02.438Z,98943.96
2017-10-30T05:20:37.062Z,98949.30
2017-10-30T05:23:11.507Z,98955.78
2017-10-30T05:25:45.939Z,98942.32
2017-10-30T05:28:20.483Z,98956.73
2017-10-30T05:30:55.134Z,98958.72
2017-10-30T05:33:30.333Z,98952.41
2017-10-30T05:36:04.950Z,98964.28
2017-10-30T05:38:39.411Z,98948.00
2017-10-30T05:41:14.011Z,98958.94
2017-10-30T05:43:48.629Z,98959.48
2017-10-30T05:46:23.118Z,98970.33
2017-10-30T05:48:57.687Z,98965.13
2017-10-30T05:51:32.174Z,98984.28
2017-10-30T05:54:06.811Z,98974.02
2017-10-30T05:56:41.247Z,98972.00
2017-10-30T05:59:15.687Z,98983.66
2017-10-30T06:01:50.134Z,99001.95
2017-10-30T06:04:24.559Z,98999.69
2017-10-30T06:06:59.404Z,99012.41
2017-10-30T06:09:33.790Z,98995.59
2017-10-30T06:12:08.361Z,99010.03
2017-10-30T06:14:42.814Z,98996.13
2017-10-30T06:17:17.316Z,99019.73
2017-10-30T06:19:52.059Z,99018.38
2017-10-30T06:22:26.647Z,99021.63
2017-10-30T06:25:01.133Z,99030.70
2017-10-30T06:27:35.793Z,99039.24
2017-10-30T06:30:17.633Z,99029.78
2017-10-30T06:32:52.290Z,99029.88
2017-10-30T06:35:26.709Z,99041.78
2017-10-30T06:38:01.235Z,99039.24
2017-10-30T06:40:35.655Z,99051.87
2017-10-30T06:43:10.972Z,99049.19
2017-10-30T06:45:45.457Z,99053.16
2017-10-30T06:48:20.023Z,99051.44
2017-10-30T06:50:54.567Z,99052.48
2017-10-30T06:53:29.436Z,99064.72
2017-10-30T06:56:03.961Z,99072.07
2017-10-30T06:58:38.851Z,99041.66
2017-10-30T07:01:13.831Z,99055.06
2017-10-30T07:03:48.367Z,99068.06
2017-10-30T07:06:22.802Z,99073.81
2017-10-30T07:08:57.262Z,99072.73
2017-10-30T07:11:32.128Z,99073.84
2017-10-30T07:14:06.847Z,99070.34
2017-10-30T07:16:41.234Z,99083.72
2017-10-30T07:19:15.783Z,99102.30
2017-10-30T07:21:50.182Z,99086.17
2017-10-30T07:24:24.750Z,99103.23
2017-10-30T07:26:59.263Z,99095.53
2017-10-30T07:29:33.899Z,99090.18
2017-10-30T07:32:08.299Z,99099.59
2017-10-30T07:34:42.890Z,99099.22
2017-10-30T07:37:17.419Z,99116.13
2017-10-30T07:39:52.014Z,99116.94
2017-10-30T07:42:26.438Z,99134.00
2017-10-30T07:45:00.851Z,99142.80
2017-10-30T07:47:35.284Z,99126.82
2017-10-30T07:50:15.447Z,99131.31
2017-10-30T07:52:49.873Z,99133.16
2017-10-30T07:55:24.254Z,99099.55
2017-10-30T07:57:58.331Z,99132.74
2017-10-30T08:00:32.381Z,99135.58
2017-10-30T08:03:06.634Z,99141.13
2017-10-30T08:05:41.145Z,99148.31
2017-10-30T08:08:15.812Z,99156.20
2017-10-30T08:10:49.944Z,99154.89
2017-10-30T08:13:24.158Z,99156.47
2017-10-30T08:15:58.328Z,99169.41
2017-10-30T08:18:32.806Z,99175.73
2017-10-30T08:21:06.899Z,99177.30
2017-10-30T08:23:41.018Z,99179.62
2017-10-30T08:26:15.487Z,99176.18
2017-10-30T08:28:49.746Z,99186.92
2017-10-30T08:31:24.208Z,99186.89
2017-10-30T08:33:58.375Z,99184.63
2017-10-30T08:36:32.423Z,99189.49
2017-10-30T08:39:06.994Z,99201.73
2017-10-30T08:41:41.138Z,99206.09
2017-10-30T08:44:15.654Z,99205.34
2017-10-30T08:46:50.491Z,99203.41
2017-10-30T08:49:25.015Z,99211.00
2017-10-30T08:51:59.230Z,99206.69
2017-10-30T08:54:33.524Z,99213.89
2017-10-30T08:57:08.270Z,99216.37
2017-10-30T08:59:43.377Z,99204.20
2017-10-30T09:02:17.432Z,99215.93
2017-10-30T09:04:51.668Z,99214.38
2017-10-30T09:07:25.906Z,99216.81
2017-10-30T09:10:00.075Z,99221.23
2017-10-30T09:12:34.185Z,99217.64
2017-10-30T09:15:12.853Z,99233.16
2017-10-30T09:17:46.987Z,99235.97
2017-10-30T09:20:28.363Z,99223.52
2017-10-30T09:23:02.547Z,99231.83
2017-10-30T09:25:36.675Z,99227.73
2017-10-30T09:28:10.691Z,99228.26
2017-10-30T09:30:44.926Z,99231.09
2017-10-30T09:33:19.071Z,99219.59
2017-10-30T09:35:53.182Z,99225.93
2017-10-30T09:38:27.625Z,99227.34
2017-10-30T09:41:02.177Z,99203.81
2017-10-30T09:43:36.287Z,99222.58
2017-10-30T09:46:10.925Z,99222.97
2017-10-30T09:48:45.076Z,99217.98
2017-10-30T09:51:19.570Z,99221.25
2017-10-30T09:53:53.770Z,99222.05
2017-10-30T09:56:27.874Z,99201.73
2017-10-30T09:59:02.137Z,99209.03
2017-10-30T10:01:36.811Z,99191.67
2017-10-30T10:04:11.021Z,99190.00
2017-10-30T10:06:45.522Z,99177.80
2017-10-30T10:09:19.802Z,99171.31
2017-10-30T10:11:54.489Z,99171.52
2017-10-30T10:14:29.034Z,99144.73
2017-10-30T10:17:03.948Z,99181.75
2017-10-30T10:19:38.339Z,99186.89
2017-10-30T10:22:12.825Z,99191.55
2017-10-30T10:24:47.338Z,99179.39
2017-10-30T10:27:21.846Z,99176.77
2017-10-30T10:29:56.116Z,99171.03
2017-10-30T10:32:30.607Z,99159.04
2017-10-30T10:35:09.460Z,99173.05
2017-10-30T10:37:43.982Z,99169.09
2017-10-30T10:40:18.137Z,99174.39
2017-10-30T10:42:52.382Z,99166.08
2017-10-30T10:45:26.501Z,99159.84
2017-10-30T10:48:00.407Z,99176.91
2017-10-30T10:50:34.810Z,99170.64
2017-10-30T10:53:09.388Z,99195.14
2017-10-30T10:55:43.835Z,99199.11
2017-10-30T10:58:18.379Z,99213.85
2017-10-30T11:00:52.847Z,99237.53
2017-10-30T11:03:27.270Z,99256.70
2017-10-30T11:06:01.682Z,99264.59
2017-10-30T11:08:36.106Z,99283.00
2017-10-30T11:11:10.597Z,99277.72
2017-10-30T11:13:45.083Z,99276.60
2017-10-30T11:16:19.914Z,99270.28
2017-10-30T11:18:54.151Z,99276.66
2017-10-30T11:21:28.740Z,99285.55
2017-10-30T11:24:03.147Z,99283.55
2017-10-30T11:26:37.575Z,99285.17
2017-10-30T11:29:12.179Z,99279.12
2017-10-30T11:31:46.619Z,99271.56
2017-10-30T11:34:21.171Z,99265.51
2017-10-30T11:36:55.630Z,99270.90
2017-10-30T11:39:30.194Z,99272.05
2017-10-30T11:42:04.570Z,99263.16
2017-10-30T11:44:39.112Z,99261.13
2017-10-30T11:47:13.627Z,99260.03
2017-10-30T11:49:48.182Z,99256.88
2017-10-30T11:52:22.704Z,99265.72
2017-10-30T11:54:57.344Z,99264.55
2017-10-30T11:57:31.987Z,99267.92
2017-10-30T12:00:06.086Z,99270.76
2017-10-30T12:02:40.580Z,99275.19
2017-10-30T12:05:15.090Z,99258.58
2017-10-30T12:07:49.596Z,99232.44
2017-10-30T12:10:23.714Z,99259.01
2017-10-30T12:12:58.310Z,99260.22
2017-10-30T12:15:32.761Z,99256.17
2017-10-30T12:18:07.135Z,99277.52
2017-10-30T12:20:41.641Z,99267.33
2017-10-30T12:23:16.218Z,99272.16
2017-10-30T12:25:50.711Z,99259.14
2017-10-30T12:28:25.491Z,99269.42
2017-10-30T12:30:59.892Z,99276.77
2017-10-30T12:33:34.794Z,99293.13
2017-10-30T12:36:09.407Z,99300.06
2017-10-30T12:38:44.007Z,99286.91
2017-10-30T12:41:18.472Z,99296.92
2017-10-30T12:43:53.005Z,99314.80
2017-10-30T12:46:27.413Z,99310.31
2017-10-30T12:49:01.991Z,99311.65
2017-10-30T12:51:36.389Z,99308.15
2017-10-30T12:54:10.926Z,99300.42
2017-10-30T12:56:45.346Z,99307.81
2017-10-30T12:59:20.047Z,99313.16
2017-10-30T13:01:54.462Z,99311.42
2017-10-30T13:04:29.085Z,99329.20
2017-10-30T13:07:03.572Z,99330.80
2017-10-30T13:09:38.094Z,99333.71
2017-10-30T13:12:12.571Z,99320.36
2017-10-30T13:14:47.139Z,99334.73
2017-10-30T13:17:21.881Z,99345.95
2017-10-30T13:19:56.514Z,99349.14
2017-10-30T13:22:30.978Z,99328.48
2017-10-30T13:25:05.467Z,99329.50
2017-10-30T13:27:39.875Z,99349.83
2017-10-30T13:30:14.342Z,99343.49
2017-10-30T13:32:48.695Z,99339.43
2017-10-30T13:35:23.542Z,99345.53
2017-10-30T13:37:58.133Z,99347.94
2017-10-30T13:40:32.582Z,99340.59
2017-10-30T13:43:08.054Z,99350.33
2017-10-30T13:45:42.646Z,99364.84
2017-10-30T13:48:17.230Z,99353.63
2017-10-30T13:50:51.983Z,99352.17
2017-10-30T13:53:26.531Z,99328.87
2017-10-30T13:56:01.015Z,99346.50
2017-10-30T13:58:35.610Z,99371.09
2017-10-30T14:01:10.112Z,99374.06
2017-10-30T14:03:44.652Z,99357.75
2017-10-30T14:06:19.070Z,99376.55
2017-10-30T14:08:53.568Z,99367.42
2017-10-30T14:11:28.275Z,99361.94
2017-10-30T14:14:02.870Z,99357.88
2017-10-30T14:16:37.355Z,99371.84
2017-10-30T14:19:11.866Z,99361.14
2017-10-30T14:21:46.247Z,99377.50
2017-10-30T14:24:20.813Z,99376.02
2017-10-30T14:26:55.306Z,99369.96
2017-10-30T14:29:29.930Z,99335.12
2017-10-30T14:32:03.998Z,99368.73
2017-10-30T14:34:38.213Z,99361.99
2017-10-30T14:37:12.712Z,99368.70
2017-10-30T14:39:46.996Z,99378.35
2017-10-30T14:42:21.486Z,99385.98
2017-10-30T14:44:56.015Z,99398.86
2017-10-30T14:47:30.102Z,99400.75
2017-10-30T14:50:04.191Z,99404.48
2017-10-30T14:52:38.242Z,99396.02
2017-10-30T14:55:12.417Z,99374.05
2017-10-30T14:57:46.579Z,99399.89
2017-10-30T15:00:20.447Z,99404.30
2017-10-30T15:02:54.644Z,99423.16
2017-10-30T15:05:28.694Z,99437.94
2017-10-30T15:08:03.003Z,99425.17
2017-10-30T15:10:37.282Z,99456.59
2017-10-30T15:13:11.906Z,99464.87
2017-10-30T15:15:46.335Z,99483.33
2017-10-30T15:18:20.947Z,99491.13
2017-10-30T15:20:55.071Z,99481.39
2017-10-30T15:23:29.099Z,99495.27
2017-10-30T15:26:03.580Z,99494.16
2017-10-30T15:28:37.961Z,99493.26
2017-10-30T15:31:12.451Z,99491.79
2017-10-30T15:33:47.154Z,99496.67
2017-10-30T15:36:21.637Z,99503.75
2017-10-30T15:38:56.256Z,99518.67
2017-10-30T15:41:30.772Z,99520.80
2017-10-30T15:44:05.362Z,99530.83
2017-10-30T15:46:39.789Z,99525.92
2017-10-30T15:49:14.698Z,99521.31
2017-10-30T15:51:49.326Z,99533.77
2017-10-30T15:54:23.571Z,99539.46
2017-10-30T15:56:58.040Z,99543.52
2017-10-30T15:59:32.674Z,99543.87
2017-10-30T16:02:07.076Z,99539.83
2017-10-30T16:04:41.643Z,99554.59
2017-10-30T16:07:16.766Z,99555.81
2017-10-30T16:09:51.364Z,99540.67
2017-10-30T16:12:25.770Z,99545.12
2017-10-30T16:15:00.350Z,99567.42
2017-10-30T16:17:34.958Z,99574.98
2017-10-30T16:20:09.479Z,99579.58
2017-10-30T16:22:44.004Z,99576.78
2017-10-30T16:25:18.522Z,99595.05
2017-10-30T16:27:53.021Z,99593.92
2017-10-30T16:30:27.205Z,99590.58
2017-10-30T16:33:01.736Z,99614.70
2017-10-30T16:35:36.196Z,99615.08
2017-10-30T16:38:10.818Z,99616.83
2017-10-30T16:40:45.206Z,99620.80
2017-10-30T16:43:19.814Z,99619.09
2017-10-30T16:45:54.232Z,99613.86
2017-10-30T16:48:28.831Z,99599.09
2017-10-30T16:51:03.239Z,99628.20
2017-10-30T16:53:37.755Z,99641.05
2017-10-30T16:56:11.905Z,99649.61
2017-10-30T16:58:46.517Z,99652.50
2017-10-30T17:01:20.983Z,99669.92
2017-10-30T17:03:55.607Z,99670.19
2017-10-30T17:06:30.026Z,99667.28
2017-10-30T17:09:04.011Z,99676.03
2017-10-30T17:11:38.689Z,99676.53
2017-10-30T17:14:13.187Z,99680.00
2017-10-30T17:16:47.774Z,99679.26
2017-10-30T17:19:22.270Z,99676.16
2017-10-30T17:21:56.715Z,99686.83
2017-10-30T17:24:31.315Z,99695.50
2017-10-30T17:27:05.769Z,99692.38
2017-10-30T17:29:40.419Z,99698.06
2017-10-30T17:32:15.007Z,99691.53
2017-10-30T17:34:49.635Z,99712.34
2017-10-30T17:37:24.133Z,99718.27
2017-10-30T17:39:58.707Z,99724.61
2017-10-30T17:42:33.135Z,99725.73
2017-10-30T17:45:07.638Z,99721.38
2017-10-30T17:47:42.184Z,99725.57
2017-10-30T17:50:16.575Z,99728.69
2017-10-30T17:52:51.202Z,99736.38
2017-10-30T17:55:25.688Z,99739.20
2017-10-30T17:58:00.443Z,99733.63
2017-10-30T18:00:34.856Z,99733.00
2017-10-30T18:03:09.035Z,99732.66
2017-10-30T18:05:43.470Z,99745.22
2017-10-30T18:08:18.101Z,99748.92
2017-10-30T18:10:52.759Z,99745.62
2017-10-30T18:13:27.255Z,99746.12
2017-10-30T18:16:01.744Z,99741.45
2017-10-30T18:18:36.138Z,99691.16
2017-10-30T18:21:10.591Z,99742.42
2017-10-30T18:23:45.179Z,99742.77
2017-10-30T18:26:19.576Z,99749.07
2017-10-30T18:28:54.090Z,99753.05
2017-10-30T18:31:28.519Z,99744.05
2017-10-30T18:34:02.865Z,99754.55
2017-10-30T18:36:37.548Z,99762.98
2017-10-30T18:39:12.093Z,99762.77
2017-10-30T18:41:46.547Z,99769.48
2017-10-30T18:44:21.083Z,99776.19
2017-10-30T18:46:55.584Z,99773.56
2017-10-30T18:49:30.215Z,99782.23
2017-10-30T18:52:04.433Z,99794.21
2017-10-30T18:54:38.879Z,99788.72
2017-10-30T18:57:13.383Z,99795.09
2017-10-30T18:59:47.757Z,99800.71
2017-10-30T19:02:22.219Z,99803.95
2017-10-30T19:04:56.775Z,99802.73
2017-10-30T19:07:31.182Z,99808.89
2017-10-30T19:10:07.583Z,99670.67
2017-10-30T19:12:42.254Z,99804.83
2017-10-30T19:15:17.100Z,99813.46
2017-10-30T19:17:51.605Z,99813.14
2017-10-30T19:20:26.070Z,99822.52
2017-10-30T19:23:00.584Z,99826.27
2017-10-30T19:25:35.058Z,99823.55
2017-10-30T19:28:09.319Z,99828.91
2017-10-30T19:30:43.835Z,99833.05
2017-10-30T19:33:18.433Z,99838.04
2017-10-30T19:35:52.964Z,99840.48
2017-10-30T19:38:27.506Z,99847.50
2017-10-30T19:41:01.920Z,99844.14
2017-10-30T19:43:36.519Z,99845.08
2017-10-30T19:46:10.919Z,99840.40
2017-10-30T19:48:45.487Z,99851.08
2017-10-30T19:51:19.890Z,99851.55
2017-10-30T19:53:54.466Z,99855.24
2017-10-30T19:56:28.927Z,99860.58
2017-10-30T19:59:03.336Z,99864.95
2017-10-30T20:01:37.817Z,99868.29
2017-10-30T20:04:12.042Z,99869.36
2017-10-30T20:06:51.942Z,99869.63
2017-10-30T20:09:32.325Z,99874.81
2017-10-30T20:12:12.069Z,99858.25
2017-10-30T20:14:46.574Z,99874.81
2017-10-30T20:17:21.055Z,99871.43
2017-10-30T20:19:55.462Z,99869.83
2017-10-30T20:22:29.942Z,99874.04
2017-10-30T20:25:12.818Z,99880.44
2017-10-30T20:27:47.230Z,99877.82
2017-10-30T20:30:21.650Z,99881.88
2017-10-30T20:32:56.142Z,99881.98
2017-10-30T20:35:30.560Z,99897.53
2017-10-30T20:38:05.034Z,99901.02
2017-10-30T20:40:39.424Z,99896.67
2017-10-30T20:43:14.026Z,99890.35
2017-10-30T20:45:48.405Z,99888.77
2017-10-30T20:48:23.038Z,99902.87
2017-10-30T20:50:57.574Z,99904.21
2017-10-30T20:53:32.247Z,99903.03
2017-10-30T20:56:06.695Z,99897.86
2017-10-30T20:58:41.306Z,99901.13
2017-10-30T21:01:15.753Z,99897.19
2017-10-30T21:03:50.336Z,99906.79
2017-10-30T21:06:24.735Z,99900.47
2017-10-30T21:08:59.362Z,99904.20
2017-10-30T21:11:35.211Z,99898.16
2017-10-30T21:14:09.616Z,99891.33
2017-10-30T21:16:44.033Z,99899.03
2017-10-30T21:19:18.592Z,99898.92
2017-10-30T21:21:53.114Z,99902.41
2017-10-30T21:24:28.506Z,99901.55
2017-10-30T21:27:02.987Z,99909.69
2017-10-30T21:29:37.446Z,99907.64
2017-10-30T21:32:11.830Z,99911.70
2017-10-30T21:34:46.431Z,99906.66
2017-10-30T21:37:20.807Z,99898.03
2017-10-30T21:39:55.430Z,99910.56
2017-10-30T21:42:29.951Z,99908.50
2017-10-30T21:45:10.338Z,99913.66
2017-10-30T21:47:44.715Z,99916.27
2017-10-30T21:50:19.178Z,99917.19
2017-10-30T21:52:53.707Z,99915.28
2017-10-30T21:55:28.150Z,99913.89
2017-10-30T21:58:02.669Z,99912.38
2017-10-30T22:00:37.139Z,99907.80
2017-10-30T22:03:11.120Z,99911.75
2017-10-30T22:05:45.715Z,99909.48
2017-10-30T22:08:20.437Z,99885.33
2017-10-30T22:10:54.968Z,99900.72
2017-10-30T22:13:29.550Z,99900.56
2017-10-30T22:16:04.654Z,99900.05
2017-10-30T22:18:38.946Z,99881.58
2017-10-30T22:21:13.598Z,99900.65
2017-10-30T22:23:48.142Z,99904.41
2017-10-30T22:26:22.565Z,99900.55
2017-10-30T22:28:57.151Z,99900.41
2017-10-30T22:31:31.627Z,99912.54
2017-10-30T22:34:06.203Z,99904.65
2017-10-30T22:36:40.654Z,99915.33
2017-10-30T22:39:15.241Z,99917.32
2017-10-30T22:41:49.775Z,99895.78
2017-10-30T22:44:24.223Z,99902.16
2017-10-30T22:46:58.670Z,99911.33
2017-10-30T22:49:33.296Z,99913.64
2017-10-30T22:52:07.679Z,99915.17
2017-10-30T22:54:42.288Z,99921.59
2017-10-30T22:57:16.745Z,99918.06
2017-10-30T22:59:51.357Z,99919.28
2017-10-30T23:02:25.795Z,99919.02
2017-10-30T23:05:00.310Z,99923.13
2017-10-30T23:07:34.791Z,99924.66
2017-10-30T23:10:14.922Z,99861.41
2017-10-30T23:12:49.519Z,99919.34
2017-10-30T23:15:24.734Z,99926.98
2017-10-30T23:17:59.266Z,99928.57
2017-10-30T23:20:34.103Z,99920.68
2017-10-30T23:23:08.706Z,99929.00
2017-10-30T23:25:43.145Z,99920.98
2017-10-30T23:28:17.686Z,99928.85
2017-10-30T23:30:52.103Z,99932.33
2017-10-30T23:33:26.514Z,99930.79
2017-10-30T23:36:01.034Z,99932.37
2017-10-30T23:38:35.582Z,99938.01
2017-10-30T23:41:09.999Z,99939.78
2017-10-30T23:43:44.630Z,99937.32
2017-10-30T23:46:19.106Z,99938.95
2017-10-30T23:48:53.762Z,99937.27
2017-10-30T23:51:28.170Z,99943.47
2017-10-30T23:54:02.694Z,99935.52
2017-10-30T23:56:37.167Z,99939.30
2017-10-30T23:59:11.640Z,99934.08
